Terminal Aerodrome Forecast
Issued by NWS Pueblo, CO

Home | Current Version | Previous Version | Text Only | Print | Product List | Glossary On
Versions: 1 2 3 4 5 6 7 8 9 10 11 12 13 14 15 16 17 18 19
000
FTUS45 KPUB 181120
TAFALS
TAF
KALS 181120Z 1812/1912 VRB04KT P6SM FEW200
     FM181600 18010KT P6SM FEW200
     FM182100 21012G22KT P6SM FEW090 SCT150
     FM190100 20010KT P6SM VCSH SCT080 BKN150
     FM190600 19011KT P6SM BKN100=

USA.gov is the U.S. government's official web portal to all federal, state and local government web resources and services.